Time;durP1;ratioP1;P1;durP2;ratioP2;P2;SDS_P1;SDS_P2;PMS_P1;PMS_P2;Temp;Humidity;BMP_temperature;BMP_pressure;BME280_temperature;BME280_humidity;BME280_pressure;Samples;Min_cycle;Max_cycle;Signal;HPM_P1;HPM_P2
2021/08/07 00:00:02;;;;;;;7.93;1.60;;;18.10;99.90;;;;;;5092586;28;20892;-89
2021/08/07 00:02:29;;;;;;;7.30;1.60;;;18.10;99.90;;;;;;5092384;28;20534;-89
2021/08/07 00:04:57;;;;;;;9.23;1.90;;;18.00;99.90;;;;;;5093064;28;20553;-88
2021/08/07 00:07:26;;;;;;;8.70;1.60;;;17.90;99.90;;;;;;5092868;28;20496;-89
2021/08/07 00:09:53;;;;;;;7.93;1.47;;;17.90;99.90;;;;;;5092389;28;20453;-89
2021/08/07 00:12:20;;;;;;;6.87;1.40;;;18.00;99.90;;;;;;5080269;28;20473;-89
2021/08/07 00:14:47;;;;;;;7.80;1.70;;;17.90;99.90;;;;;;5074164;28;20451;-89
2021/08/07 00:17:13;;;;;;;8.53;1.57;;;17.90;99.90;;;;;;5077828;28;20464;-89
2021/08/07 00:19:40;;;;;;;7.60;1.50;;;17.70;99.90;;;;;;5101178;28;20435;-89
2021/08/07 00:22:08;;;;;;;7.70;1.60;;;17.90;99.90;;;;;;5116365;28;20524;-89
2021/08/07 00:24:35;;;;;;;7.50;1.93;;;18.00;99.90;;;;;;5103362;28;20436;-87
2021/08/07 00:27:02;;;;;;;6.77;1.60;;;18.00;99.90;;;;;;5091145;28;20869;-87
2021/08/07 00:29:34;;;;;;;7.40;1.47;;;18.00;99.90;;;;;;5093574;28;20458;-87
2021/08/07 00:32:01;;;;;;;6.53;1.40;;;18.00;99.90;;;;;;5093757;28;21027;-87
2021/08/07 00:34:28;;;;;;;10.53;1.53;;;18.00;99.90;;;;;;5094035;28;20458;-87
2021/08/07 00:36:55;;;;;;;9.63;1.70;;;18.00;99.90;;;;;;5093772;28;20463;-87
2021/08/07 00:39:23;;;;;;;7.50;1.77;;;18.00;99.90;;;;;;5093762;28;20820;-87
2021/08/07 00:41:50;;;;;;;7.20;1.40;;;17.90;99.90;;;;;;5092097;28;21016;-87
2021/08/07 00:44:17;;;;;;;6.67;1.53;;;17.90;99.90;;;;;;5093276;28;20455;-87
2021/08/07 00:46:43;;;;;;;9.33;1.90;;;17.90;99.90;;;;;;5093753;28;20493;-87
2021/08/07 00:49:10;;;;;;;6.60;1.40;;;17.90;99.90;;;;;;5081932;28;20460;-87
2021/08/07 00:51:37;;;;;;;6.67;1.50;;;17.90;99.90;;;;;;5073219;28;20493;-87
2021/08/07 00:54:04;;;;;;;6.57;1.67;;;17.90;99.90;;;;;;5073059;28;20459;-86
2021/08/07 00:56:32;;;;;;;7.20;1.63;;;17.80;99.90;;;;;;5073077;28;20453;-87
2021/08/07 00:58:59;;;;;;;6.80;1.53;;;17.90;99.90;;;;;;5082694;28;20957;-87
2021/08/07 01:01:33;;;;;;;7.37;1.80;;;17.90;99.90;;;;;;5093376;28;20467;-87
2021/08/07 01:04:00;;;;;;;6.70;1.47;;;17.90;99.90;;;;;;5093275;28;20460;-87
2021/08/07 01:06:34;;;;;;;7.37;1.93;;;17.90;99.90;;;;;;5092769;28;20460;-87
2021/08/07 01:09:09;;;;;;;7.73;1.70;;;18.00;99.90;;;;;;5087972;28;20555;-87
2021/08/07 01:11:44;;;;;;;6.80;1.57;;;18.00;99.90;;;;;;5086604;28;20488;-87
2021/08/07 01:14:12;;;;;;;7.40;1.90;;;18.00;99.90;;;;;;5072939;28;20954;-87
2021/08/07 01:16:42;;;;;;;6.70;1.40;;;18.00;99.90;;;;;;5091915;28;20841;-87
2021/08/07 01:19:16;;;;;;;6.70;1.70;;;18.00;99.90;;;;;;5092668;28;20463;-87
2021/08/07 01:21:48;;;;;;;6.40;1.30;;;18.00;99.90;;;;;;5076832;28;20469;-87
2021/08/07 01:24:21;;;;;;;6.80;1.50;;;18.00;99.90;;;;;;5072985;28;20449;-87
2021/08/07 01:27:00;;;;;;;7.30;1.67;;;18.00;99.90;;;;;;5074034;28;20480;-88
2021/08/07 01:29:29;;;;;;;7.20;1.80;;;17.90;99.90;;;;;;5094374;28;20457;-88
2021/08/07 01:31:57;;;;;;;6.57;1.47;;;17.80;99.90;;;;;;5076462;28;21004;-87
2021/08/07 01:34:24;;;;;;;8.30;1.50;;;17.90;99.90;;;;;;5071730;28;20452;-87
2021/08/07 01:36:52;;;;;;;7.93;2.17;;;18.00;99.90;;;;;;5072643;28;20461;-89
2021/08/07 01:39:19;;;;;;;7.57;2.10;;;17.90;99.90;;;;;;5071863;28;20546;-88
2021/08/07 01:41:45;;;;;;;6.63;1.60;;;17.90;99.90;;;;;;5080477;28;21117;-87
2021/08/07 01:44:12;;;;;;;7.60;2.00;;;17.80;99.90;;;;;;5076669;28;20453;-87
2021/08/07 01:46:51;;;;;;;7.00;1.60;;;17.90;99.90;;;;;;5092185;28;20451;-89
2021/08/07 01:49:27;;;;;;;7.00;1.67;;;17.80;99.90;;;;;;5092170;28;20496;-88
2021/08/07 01:51:59;;;;;;;8.90;1.90;;;17.80;99.90;;;;;;5092578;28;20473;-87
2021/08/07 01:54:31;;;;;;;7.03;1.43;;;17.80;99.90;;;;;;5092418;28;20538;-89
2021/08/07 01:57:01;;;;;;;7.47;1.40;;;17.80;99.90;;;;;;5074196;28;20448;-88
2021/08/07 01:59:28;;;;;;;8.60;1.80;;;17.80;99.90;;;;;;5088914;28;20457;-87
2021/08/07 02:01:56;;;;;;;7.20;1.40;;;17.80;99.90;;;;;;5092089;28;20474;-86
2021/08/07 02:04:24;;;;;;;7.60;1.80;;;17.80;99.90;;;;;;5092373;28;20818;-88
2021/08/07 02:06:51;;;;;;;9.07;2.10;;;17.90;99.90;;;;;;5088623;28;20960;-87
2021/08/07 02:09:20;;;;;;;9.33;1.67;;;17.90;99.90;;;;;;5085408;28;20460;-87
2021/08/07 02:11:47;;;;;;;7.13;1.50;;;17.80;99.90;;;;;;5091863;28;20474;-88
2021/08/07 02:14:16;;;;;;;7.27;1.57;;;17.80;99.90;;;;;;5075023;28;20448;-88
2021/08/07 02:16:44;;;;;;;7.03;1.40;;;17.80;99.90;;;;;;5091893;28;20446;-88
2021/08/07 02:19:14;;;;;;;7.60;1.40;;;17.90;99.90;;;;;;5091389;28;20545;-88
2021/08/07 02:21:42;;;;;;;6.80;1.70;;;17.80;99.90;;;;;;5091841;28;20466;-88
2021/08/07 02:24:08;;;;;;;7.50;1.50;;;17.80;99.90;;;;;;5091284;28;20452;-88
2021/08/07 02:26:36;;;;;;;7.83;1.30;;;17.90;99.90;;;;;;5091578;28;20939;-88
2021/08/07 02:29:04;;;;;;;6.90;1.57;;;17.90;99.90;;;;;;5081501;28;20833;-87
2021/08/07 02:31:32;;;;;;;7.13;1.90;;;17.90;99.90;;;;;;5072669;28;20501;-88
2021/08/07 02:34:00;;;;;;;7.10;1.60;;;17.90;99.90;;;;;;5071791;28;20449;-88
2021/08/07 02:36:30;;;;;;;7.50;1.43;;;18.00;99.90;;;;;;5071247;28;20966;-89
2021/08/07 02:38:58;;;;;;;8.43;1.50;;;17.90;99.90;;;;;;5071239;28;20842;-88
2021/08/07 02:41:26;;;;;;;7.73;1.40;;;17.90;99.90;;;;;;5072633;28;20489;-89
2021/08/07 02:43:53;;;;;;;6.50;1.50;;;17.90;99.90;;;;;;5075526;28;20457;-88
2021/08/07 02:46:21;;;;;;;6.70;1.43;;;17.90;99.90;;;;;;5073322;28;20986;-89
2021/08/07 02:48:48;;;;;;;6.80;1.40;;;17.80;99.90;;;;;;5090881;28;20484;-89
2021/08/07 02:51:15;;;;;;;7.80;1.70;;;17.80;99.90;;;;;;5096742;28;20462;-89
2021/08/07 02:53:44;;;;;;;6.43;1.33;;;17.80;99.90;;;;;;5096776;28;20562;-88
2021/08/07 02:56:11;;;;;;;6.33;1.40;;;17.70;99.90;;;;;;5096789;28;20455;-87
2021/08/07 02:58:39;;;;;;;6.90;1.60;;;17.70;99.90;;;;;;5096231;28;20461;-87
2021/08/07 03:01:06;;;;;;;7.70;1.90;;;17.60;99.90;;;;;;5096924;28;21000;-87
2021/08/07 03:03:32;;;;;;;6.40;1.30;;;17.60;99.90;;;;;;5097257;28;20977;-88
2021/08/07 03:05:59;;;;;;;7.07;1.57;;;17.60;99.90;;;;;;5085048;28;20458;-89
2021/08/07 03:08:26;;;;;;;7.10;1.50;;;17.60;99.90;;;;;;5118275;28;20504;-88
2021/08/07 03:10:54;;;;;;;6.70;1.60;;;17.50;99.90;;;;;;5102021;28;20559;-87
2021/08/07 03:13:21;;;;;;;7.77;1.60;;;17.50;99.90;;;;;;5094969;28;20448;-88
2021/08/07 03:15:48;;;;;;;6.30;1.30;;;17.50;99.90;;;;;;5076389;28;20964;-87
2021/08/07 03:18:15;;;;;;;7.00;1.63;;;17.50;99.90;;;;;;5075354;28;20444;-88
2021/08/07 03:20:42;;;;;;;6.50;1.73;;;17.40;99.90;;;;;;5075723;28;20523;-88
2021/08/07 03:23:10;;;;;;;6.53;1.50;;;17.40;99.90;;;;;;5078929;28;20460;-87
2021/08/07 03:25:37;;;;;;;7.40;1.53;;;17.40;99.90;;;;;;5084166;28;20458;-87
2021/08/07 03:28:07;;;;;;;6.47;1.67;;;17.40;99.90;;;;;;5074969;28;20492;-88
2021/08/07 03:30:34;;;;;;;6.70;1.60;;;17.40;99.90;;;;;;5074899;28;20459;-87
2021/08/07 03:33:00;;;;;;;7.43;1.83;;;17.40;99.90;;;;;;5074723;28;20438;-88
2021/08/07 03:35:27;;;;;;;10.73;1.70;;;17.30;99.90;;;;;;5075107;28;20447;-88
2021/08/07 03:37:54;;;;;;;6.93;1.70;;;17.30;99.90;;;;;;5075573;28;20456;-89
2021/08/07 03:40:21;;;;;;;6.83;1.67;;;17.30;99.90;;;;;;5074779;28;20968;-88
2021/08/07 03:42:48;;;;;;;7.03;1.53;;;17.30;99.90;;;;;;5074796;28;20464;-87
2021/08/07 03:45:16;;;;;;;8.30;1.60;;;17.20;99.90;;;;;;5074473;28;20821;-89
2021/08/07 03:47:47;;;;;;;8.00;1.57;;;17.20;99.90;;;;;;5074403;28;20481;-88
2021/08/07 03:50:15;;;;;;;6.37;1.30;;;17.20;99.90;;;;;;5074326;28;20456;-89
2021/08/07 03:52:42;;;;;;;6.87;1.70;;;17.10;99.90;;;;;;5076555;28;20473;-88
2021/08/07 03:55:09;;;;;;;8.30;1.87;;;17.10;99.90;;;;;;5093499;28;20460;-88
2021/08/07 03:57:50;;;;;;;7.73;1.80;;;17.00;99.90;;;;;;5102561;28;20531;-88
2021/08/07 04:00:19;;;;;;;6.50;1.30;;;17.00;99.90;;;;;;5112022;28;20461;-88
2021/08/07 04:02:46;;;;;;;7.40;1.60;;;16.90;99.90;;;;;;5120597;28;20466;-90
2021/08/07 04:05:14;;;;;;;6.40;1.53;;;16.90;99.90;;;;;;5116006;28;20469;-88
2021/08/07 04:07:44;;;;;;;8.10;1.93;;;16.80;99.90;;;;;;5095137;28;20486;-88
2021/08/07 04:10:11;;;;;;;7.47;1.67;;;16.80;99.90;;;;;;5094938;28;20465;-87
2021/08/07 04:12:42;;;;;;;8.90;1.40;;;16.80;99.90;;;;;;5094512;28;20467;-92
2021/08/07 04:15:10;;;;;;;6.50;1.60;;;16.80;99.90;;;;;;5094498;28;20462;-90
2021/08/07 04:17:40;;;;;;;7.13;1.50;;;16.80;99.90;;;;;;5094478;28;20525;-93
2021/08/07 04:20:10;;;;;;;7.17;1.83;;;16.70;99.90;;;;;;5094448;28;20453;-91
2021/08/07 04:22:37;;;;;;;8.00;1.60;;;16.70;99.90;;;;;;5095357;28;20569;-86
2021/08/07 04:25:06;;;;;;;6.80;1.57;;;16.80;99.90;;;;;;5092355;28;20469;-87
2021/08/07 04:27:33;;;;;;;6.77;1.67;;;16.80;99.90;;;;;;5077388;28;20967;-87
2021/08/07 04:30:00;;;;;;;7.20;1.67;;;16.80;99.90;;;;;;5087931;28;20572;-87
2021/08/07 04:32:26;;;;;;;9.33;1.83;;;16.80;99.90;;;;;;5076486;28;20468;-87
2021/08/07 04:34:55;;;;;;;7.97;1.80;;;16.80;99.90;;;;;;5080138;28;20442;-87
2021/08/07 04:37:22;;;;;;;7.00;1.60;;;16.80;99.90;;;;;;5089225;28;20454;-88
2021/08/07 04:39:49;;;;;;;7.40;1.60;;;16.90;99.90;;;;;;5073213;28;20455;-88
2021/08/07 04:42:16;;;;;;;6.70;1.80;;;16.90;99.90;;;;;;5073517;28;20475;-88
2021/08/07 04:44:43;;;;;;;7.40;1.60;;;16.90;99.90;;;;;;5074581;28;20487;-88
2021/08/07 04:47:10;;;;;;;7.87;1.70;;;17.00;99.90;;;;;;5072944;28;20446;-86
2021/08/07 04:49:37;;;;;;;7.30;1.70;;;17.10;99.90;;;;;;5074022;28;20497;-88
2021/08/07 04:52:06;;;;;;;7.30;1.87;;;17.10;99.90;;;;;;5072854;28;20465;-87
2021/08/07 04:54:33;;;;;;;7.53;2.30;;;17.10;99.90;;;;;;5074976;28;20460;-89
2021/08/07 04:57:02;;;;;;;7.23;1.97;;;17.10;99.90;;;;;;5073171;28;20506;-89
2021/08/07 04:59:31;;;;;;;7.10;1.60;;;17.10;99.90;;;;;;5073047;28;20487;-89
2021/08/07 05:02:12;;;;;;;7.90;1.60;;;17.20;99.90;;;;;;5086218;28;20531;-89
2021/08/07 05:04:39;;;;;;;7.97;1.77;;;17.30;99.90;;;;;;5093378;28;20519;-89
2021/08/07 05:07:07;;;;;;;7.30;2.10;;;17.30;99.90;;;;;;5086881;28;20473;-86
2021/08/07 05:09:34;;;;;;;8.40;1.87;;;17.30;99.90;;;;;;5091673;28;20482;-85
2021/08/07 05:12:00;;;;;;;7.87;1.90;;;17.40;99.90;;;;;;5087569;28;20474;-85
2021/08/07 05:14:27;;;;;;;8.50;2.50;;;17.40;99.90;;;;;;5087656;28;20449;-85
2021/08/07 05:16:54;;;;;;;8.10;1.83;;;17.40;99.90;;;;;;5090804;28;20453;-85
2021/08/07 05:19:21;;;;;;;12.60;1.77;;;17.50;99.90;;;;;;5083381;28;20447;-87
2021/08/07 05:21:47;;;;;;;7.70;1.93;;;17.40;99.90;;;;;;5106980;28;20560;-86
2021/08/07 05:24:15;;;;;;;8.10;2.00;;;17.50;99.90;;;;;;5092493;28;20447;-86
2021/08/07 05:26:42;;;;;;;11.33;1.60;;;17.60;99.90;;;;;;5092493;28;20977;-87
2021/08/07 05:29:09;;;;;;;7.30;1.83;;;17.60;99.90;;;;;;5092403;28;20476;-86
2021/08/07 05:31:36;;;;;;;7.10;1.50;;;17.60;99.90;;;;;;5091690;28;20502;-86
2021/08/07 05:34:03;;;;;;;8.40;1.40;;;17.60;99.90;;;;;;5089258;28;20457;-86
2021/08/07 05:36:29;;;;;;;7.37;1.87;;;17.70;99.90;;;;;;5092518;28;20827;-86
2021/08/07 05:38:56;;;;;;;6.43;1.57;;;17.80;99.90;;;;;;5092743;28;20456;-86
2021/08/07 05:41:24;;;;;;;6.60;1.47;;;17.80;99.90;;;;;;5092875;28;20563;-86
2021/08/07 05:43:51;;;;;;;7.10;1.60;;;17.80;99.90;;;;;;5092636;28;20455;-87
2021/08/07 05:46:18;;;;;;;7.40;1.70;;;17.80;99.90;;;;;;5092649;28;20455;-85
2021/08/07 05:48:45;;;;;;;7.50;1.50;;;17.80;99.90;;;;;;5092543;28;20491;-86
2021/08/07 05:51:12;;;;;;;8.73;1.60;;;17.80;99.90;;;;;;5096752;28;20476;-85
2021/08/07 05:53:38;;;;;;;8.57;1.97;;;17.90;99.90;;;;;;5097009;28;20457;-85
2021/08/07 05:56:05;;;;;;;8.83;1.53;;;17.80;99.90;;;;;;5114374;28;20456;-85
2021/08/07 05:58:37;;;;;;;9.53;1.90;;;17.90;99.90;;;;;;5115162;28;20469;-85
2021/08/07 06:01:04;;;;;;;9.00;2.00;;;17.90;99.90;;;;;;5104203;28;20548;-85
2021/08/07 06:03:31;;;;;;;6.67;1.47;;;17.90;99.90;;;;;;5112425;28;20520;-85
2021/08/07 06:05:57;;;;;;;7.27;1.57;;;17.90;99.90;;;;;;5109072;28;20454;-85
2021/08/07 06:08:24;;;;;;;6.70;1.30;;;17.90;99.90;;;;;;5101461;28;20670;-85
2021/08/07 06:10:51;;;;;;;6.60;1.40;;;17.90;99.90;;;;;;5093433;28;20468;-85
2021/08/07 06:13:18;;;;;;;7.37;1.67;;;18.00;99.90;;;;;;5093793;28;20527;-85
2021/08/07 06:15:46;;;;;;;8.40;1.43;;;17.90;99.90;;;;;;5092235;28;20539;-85
2021/08/07 06:18:13;;;;;;;7.30;1.60;;;18.00;99.90;;;;;;5090931;28;20457;-85
2021/08/07 06:20:40;;;;;;;9.27;1.73;;;17.90;99.90;;;;;;5090180;28;20452;-86
2021/08/07 06:23:07;;;;;;;8.80;1.80;;;17.90;99.90;;;;;;5089694;28;20436;-86
2021/08/07 06:25:34;;;;;;;7.27;1.60;;;17.80;99.90;;;;;;5071041;28;20465;-85
2021/08/07 06:28:02;;;;;;;6.87;1.70;;;17.70;99.90;;;;;;5071270;28;20467;-85
2021/08/07 06:30:29;;;;;;;7.47;1.80;;;17.80;99.90;;;;;;5071129;28;20532;-85
2021/08/07 06:32:58;;;;;;;12.87;2.53;;;17.80;99.90;;;;;;5071896;28;20498;-84
2021/08/07 06:35:25;;;;;;;10.40;1.83;;;17.80;99.90;;;;;;5087125;28;20527;-85
2021/08/07 06:37:53;;;;;;;6.97;2.23;;;17.80;99.90;;;;;;5091888;28;20443;-84
2021/08/07 06:40:20;;;;;;;8.73;1.97;;;17.80;99.90;;;;;;5092790;28;20467;-85
2021/08/07 06:42:47;;;;;;;7.07;1.50;;;17.90;99.90;;;;;;5093377;28;20443;-84
2021/08/07 06:45:14;;;;;;;8.87;1.73;;;17.90;99.90;;;;;;5092921;28;20451;-85
2021/08/07 06:47:41;;;;;;;11.30;1.90;;;17.90;99.90;;;;;;5092993;28;20447;-84
2021/08/07 06:50:10;;;;;;;6.60;1.77;;;17.90;99.90;;;;;;5097585;28;20491;-85
2021/08/07 06:52:37;;;;;;;6.70;1.60;;;18.00;99.90;;;;;;5100026;28;20463;-85
2021/08/07 06:55:05;;;;;;;7.73;1.93;;;18.20;99.90;;;;;;5100997;28;20483;-84
2021/08/07 06:57:32;;;;;;;7.80;1.77;;;18.20;99.90;;;;;;5100569;28;20445;-84
2021/08/07 07:00:01;;;;;;;7.70;2.00;;;18.40;99.90;;;;;;5101023;28;20446;-85
2021/08/07 07:02:28;;;;;;;7.67;1.60;;;18.40;99.90;;;;;;5100977;28;20644;-86
2021/08/07 07:04:55;;;;;;;8.77;1.83;;;18.50;99.90;;;;;;5099066;28;20566;-85
2021/08/07 07:07:23;;;;;;;8.13;1.87;;;18.40;99.90;;;;;;5102735;28;20449;-85
2021/08/07 07:09:50;;;;;;;8.33;1.50;;;18.50;99.90;;;;;;5113232;28;20519;-84
2021/08/07 07:12:17;;;;;;;7.03;1.60;;;18.70;99.90;;;;;;5102154;28;20475;-85
2021/08/07 07:14:44;;;;;;;7.27;1.63;;;18.80;99.90;;;;;;5109463;28;20418;-84
2021/08/07 07:17:11;;;;;;;8.20;1.60;;;18.80;99.90;;;;;;5121699;28;20447;-85
2021/08/07 07:19:38;;;;;;;9.50;1.90;;;18.70;99.90;;;;;;5093342;28;20449;-85
2021/08/07 07:22:05;;;;;;;8.13;1.87;;;18.80;99.90;;;;;;5101722;28;20544;-84
2021/08/07 07:24:34;;;;;;;9.67;1.70;;;18.70;99.90;;;;;;5098875;28;20453;-84
2021/08/07 07:27:01;;;;;;;9.23;1.47;;;18.60;99.90;;;;;;5096015;28;20456;-85
2021/08/07 07:29:28;;;;;;;8.33;1.83;;;18.80;99.90;;;;;;5095499;28;20550;-85
2021/08/07 07:31:55;;;;;;;8.20;1.67;;;18.80;99.90;;;;;;5095899;28;20572;-85
2021/08/07 07:34:22;;;;;;;8.60;2.07;;;18.60;99.90;;;;;;5099942;28;20536;-85
2021/08/07 07:36:49;;;;;;;9.03;1.87;;;18.60;99.90;;;;;;5101776;28;20914;-85
2021/08/07 07:39:16;;;;;;;7.30;1.90;;;18.40;99.90;;;;;;5102670;28;20453;-84
2021/08/07 07:41:44;;;;;;;7.27;1.33;;;18.10;99.90;;;;;;5092448;28;20560;-85
2021/08/07 07:44:11;;;;;;;12.67;2.13;;;18.20;99.90;;;;;;5101295;28;20532;-85
2021/08/07 07:46:37;;;;;;;10.23;1.97;;;18.10;99.90;;;;;;5097109;28;20456;-86
2021/08/07 07:49:04;;;;;;;10.17;2.30;;;18.10;99.90;;;;;;5096289;28;20516;-84
2021/08/07 07:51:31;;;;;;;8.00;1.87;;;18.00;99.90;;;;;;5096659;28;20479;-86
2021/08/07 07:53:58;;;;;;;8.60;1.80;;;18.20;99.90;;;;;;5095017;28;20459;-85
2021/08/07 07:56:25;;;;;;;7.10;1.77;;;18.20;99.90;;;;;;5092030;28;20441;-85
2021/08/07 07:58:53;;;;;;;11.13;2.53;;;18.20;99.90;;;;;;5091512;28;20450;-86
2021/08/07 08:01:20;;;;;;;7.07;1.87;;;18.30;99.90;;;;;;5095561;28;20461;-86
2021/08/07 08:03:47;;;;;;;8.10;2.00;;;18.40;99.90;;;;;;5095605;28;20456;-86
2021/08/07 08:06:14;;;;;;;8.40;1.73;;;18.40;99.90;;;;;;5096136;28;20455;-86
2021/08/07 08:08:41;;;;;;;8.77;2.30;;;18.60;99.90;;;;;;5095694;28;20545;-84
2021/08/07 08:11:08;;;;;;;9.27;2.00;;;18.70;99.90;;;;;;5096420;28;20513;-86
2021/08/07 08:13:35;;;;;;;6.90;1.80;;;18.90;99.90;;;;;;5094711;28;20457;-86
2021/08/07 08:16:04;;;;;;;10.27;3.43;;;19.00;99.90;;;;;;5094607;28;20479;-86
2021/08/07 08:18:30;;;;;;;7.53;2.17;;;19.30;99.90;;;;;;5086627;28;20453;-86
2021/08/07 08:20:57;;;;;;;9.27;1.80;;;19.50;99.90;;;;;;5092771;28;20484;-86
2021/08/07 08:23:24;;;;;;;9.60;1.90;;;19.70;99.90;;;;;;5086642;28;20530;-86
2021/08/07 08:25:51;;;;;;;11.03;2.20;;;19.70;99.90;;;;;;5094197;28;20480;-87
2021/08/07 08:28:19;;;;;;;7.47;1.77;;;19.90;99.90;;;;;;5094119;28;20515;-87
2021/08/07 08:30:46;;;;;;;11.80;2.93;;;19.80;99.90;;;;;;5090734;28;21030;-87
2021/08/07 08:33:15;;;;;;;7.13;1.63;;;20.00;99.90;;;;;;5094963;28;20514;-86
2021/08/07 08:35:43;;;;;;;7.50;1.60;;;20.20;99.90;;;;;;5094394;28;21148;-86
2021/08/07 08:38:10;;;;;;;8.90;2.00;;;20.30;99.90;;;;;;5096799;28;20537;-86
2021/08/07 08:40:38;;;;;;;7.53;1.43;;;20.50;99.90;;;;;;5109552;28;20489;-86
2021/08/07 08:43:05;;;;;;;8.73;2.07;;;20.40;99.90;;;;;;5102124;28;20471;-86
2021/08/07 08:45:32;;;;;;;9.77;1.90;;;20.60;99.90;;;;;;5092127;28;20530;-85
2021/08/07 08:48:01;;;;;;;8.27;1.87;;;20.60;99.90;;;;;;5083286;28;20451;-86
2021/08/07 08:50:29;;;;;;;9.10;2.10;;;20.60;99.90;;;;;;5075644;28;21029;-85
2021/08/07 08:53:00;;;;;;;9.50;2.20;;;20.60;99.90;;;;;;5076873;28;20454;-85
2021/08/07 08:55:26;;;;;;;8.83;1.70;;;20.60;99.90;;;;;;5077889;28;20509;-85
2021/08/07 08:57:54;;;;;;;9.60;2.50;;;20.70;99.90;;;;;;5075120;28;20458;-86
2021/08/07 09:00:21;;;;;;;7.67;1.73;;;20.90;99.90;;;;;;5085392;28;21112;-85
2021/08/07 09:02:48;;;;;;;8.13;1.70;;;21.00;99.90;;;;;;5074691;28;20521;-85
2021/08/07 09:05:15;;;;;;;9.20;1.60;;;21.00;99.90;;;;;;5075414;28;20474;-86
2021/08/07 09:07:45;;;;;;;9.53;2.00;;;21.10;99.90;;;;;;5080275;28;20447;-85
2021/08/07 09:10:12;;;;;;;10.80;1.73;;;21.00;99.90;;;;;;5098184;28;20550;-85
2021/08/07 09:12:42;;;;;;;9.93;2.03;;;20.90;99.90;;;;;;5082759;28;20482;-87
2021/08/07 09:15:30;;;;;;;9.50;2.40;;;21.30;99.90;;;;;;5073357;28;20816;-86
2021/08/07 09:18:27;;;;;;;10.40;2.50;;;21.30;99.90;;;;;;5073407;28;20451;-86
2021/08/07 09:20:54;;;;;;;8.60;2.10;;;21.10;99.90;;;;;;5011194;28;20545;-86
2021/08/07 09:23:34;;;;;;;11.07;3.00;;;21.40;99.90;;;;;;5059706;28;20515;-87
2021/08/07 09:26:19;;;;;;;12.03;2.33;;;21.60;99.90;;;;;;5075488;28;20469;-85
2021/08/07 09:28:51;;;;;;;12.83;2.40;;;21.60;99.90;;;;;;5074317;28;20451;-85
2021/08/07 09:31:19;;;;;;;13.20;2.20;;;21.90;99.90;;;;;;5074521;28;20494;-86
2021/08/07 09:33:46;;;;;;;10.10;1.73;;;22.10;99.90;;;;;;5073117;28;20453;-86
2021/08/07 09:36:13;;;;;;;15.73;2.53;;;22.40;99.90;;;;;;5093106;28;20442;-86
2021/08/07 09:38:49;;;;;;;11.30;2.60;;;22.40;99.90;;;;;;5093495;28;20448;-85
2021/08/07 09:41:16;;;;;;;12.00;2.10;;;22.20;99.90;;;;;;5092862;28;20540;-86
2021/08/07 09:43:47;;;;;;;9.83;1.87;;;22.20;99.90;;;;;;5093026;28;20460;-86
2021/08/07 09:46:17;;;;;;;9.80;1.63;;;22.40;99.90;;;;;;5093609;28;20806;-86
2021/08/07 09:48:47;;;;;;;11.43;2.33;;;22.40;99.90;;;;;;5093373;28;20537;-86
2021/08/07 09:51:22;;;;;;;7.87;1.20;;;22.60;99.90;;;;;;5092768;28;20929;-86
2021/08/07 09:54:08;;;;;;;8.93;1.60;;;23.10;99.90;;;;;;5092959;28;20514;-86
2021/08/07 09:56:46;;;;;;;17.53;2.20;;;23.30;99.90;;;;;;5093291;28;20465;-85
2021/08/07 09:59:14;;;;;;;13.50;2.00;;;23.00;99.90;;;;;;5092715;28;20450;-86
2021/08/07 10:01:41;;;;;;;9.37;1.60;;;22.70;99.90;;;;;;5093162;28;20470;-86
2021/08/07 10:04:10;;;;;;;11.90;2.13;;;22.50;99.90;;;;;;5092614;28;20446;-86
2021/08/07 10:06:38;;;;;;;13.80;1.83;;;22.20;99.90;;;;;;5093361;28;20919;-86
2021/08/07 10:09:07;;;;;;;9.77;1.50;;;21.60;99.90;;;;;;5092570;28;20454;-85
2021/08/07 10:11:34;;;;;;;9.60;1.60;;;21.30;99.90;;;;;;5092670;28;20470;-86
2021/08/07 10:14:02;;;;;;;10.57;1.67;;;21.20;99.90;;;;;;5092329;28;20452;-86
2021/08/07 10:16:30;;;;;;;12.40;1.80;;;21.20;99.90;;;;;;5092404;28;20981;-86
2021/08/07 10:18:58;;;;;;;10.70;1.67;;;21.20;99.90;;;;;;5092951;28;20449;-86
2021/08/07 10:21:25;;;;;;;8.80;1.60;;;21.00;99.90;;;;;;5092624;28;20471;-85
2021/08/07 10:23:54;;;;;;;10.87;1.57;;;20.90;99.90;;;;;;5092499;28;20980;-86
2021/08/07 10:26:26;;;;;;;11.23;1.80;;;20.80;99.90;;;;;;5082483;28;21036;-86
2021/08/07 10:28:55;;;;;;;13.43;2.13;;;20.70;99.90;;;;;;5085585;28;20446;-86
2021/08/07 10:31:23;;;;;;;12.43;2.13;;;20.80;99.90;;;;;;5079305;28;20490;-86
2021/08/07 10:33:53;;;;;;;10.80;1.83;;;20.80;99.90;;;;;;5072263;28;20455;-86
2021/08/07 10:36:20;;;;;;;10.83;2.00;;;20.80;99.90;;;;;;5072543;28;20447;-85
2021/08/07 10:38:47;;;;;;;11.37;2.20;;;20.70;99.90;;;;;;5071997;28;20438;-86
2021/08/07 10:41:15;;;;;;;7.60;1.63;;;20.90;99.90;;;;;;5085274;28;20519;-86
2021/08/07 10:43:44;;;;;;;9.40;1.73;;;21.40;99.90;;;;;;5088055;28;20925;-86
2021/08/07 10:46:12;;;;;;;10.17;1.83;;;22.40;99.90;;;;;;5090675;28;20458;-86
2021/08/07 10:48:42;;;;;;;11.40;1.70;;;23.30;99.90;;;;;;5095507;28;20698;-87
2021/08/07 10:51:43;;;;;;;13.67;1.43;;;23.80;99.90;;;;;;5092481;28;20481;-86
2021/08/07 10:54:32;;;;;;;13.00;1.73;;;24.20;99.90;;;;;;5030740;28;20894;-87
2021/08/07 10:56:59;;;;;;;15.23;1.60;;;24.60;99.90;;;;;;5025913;28;20460;-87
2021/08/07 10:59:28;;;;;;;11.97;1.70;;;24.60;99.90;;;;;;5074883;28;20442;-87
2021/08/07 11:01:57;;;;;;;30.87;2.57;;;24.90;99.90;;;;;;5102910;28;20462;-87
2021/08/07 11:04:27;;;;;;;18.13;1.63;;;25.60;99.90;;;;;;5107563;28;20979;-86
2021/08/07 11:07:10;;;;;;;20.57;2.00;;;26.30;99.90;;;;;;5087109;28;20435;-88
2021/08/07 11:09:40;;;;;;;28.27;2.60;;;26.30;99.90;;;;;;5077779;28;20530;-87
2021/08/07 11:12:28;;;;;;;34.17;1.97;;;26.60;99.90;;;;;;5078149;28;20477;-87
2021/08/07 11:15:01;;;;;;;46.37;2.60;;;26.80;99.90;;;;;;5091587;28;20442;-86
2021/08/07 11:17:37;;;;;;;38.10;2.30;;;27.10;99.90;;;;;;5104757;28;20438;-87
2021/08/07 11:20:09;;;;;;;44.63;2.20;;;27.60;99.90;;;;;;5097072;28;20495;-87
2021/08/07 11:23:18;;;;;;;50.87;3.90;;;27.90;99.90;;;;;;5097167;28;20470;-87
2021/08/07 11:26:01;;;;;;;53.00;8.73;;;27.90;99.90;;;;;;5088806;28;20462;-86
2021/08/07 11:28:29;;;;;;;834.90;785.70;;;28.10;99.90;;;;;;5104802;28;20421;-83
2021/08/07 11:31:21;;;;;;;440.33;415.10;;;27.70;99.90;;;;;;5108588;28;20530;-84
2021/08/07 11:34:03;;;;;;;288.63;271.87;;;26.80;99.90;;;;;;5106885;28;20474;-85
2021/08/07 11:36:30;;;;;;;73.63;53.73;;;26.10;99.90;;;;;;5066676;28;20458;-85
2021/08/07 11:39:05;;;;;;;136.60;125.23;;;25.70;99.90;;;;;;5093844;28;20454;-86
2021/08/07 11:41:37;;;;;;;104.37;94.40;;;25.00;99.90;;;;;;5095196;28;20523;-86
2021/08/07 11:44:05;;;;;;;76.77;63.50;;;24.30;99.90;;;;;;5078166;28;20489;-85
2021/08/07 11:46:37;;;;;;;66.87;40.77;;;23.90;99.90;;;;;;5092552;28;20440;-85
2021/08/07 11:49:06;;;;;;;45.30;7.70;;;23.60;99.90;;;;;;5092047;28;20462;-86
2021/08/07 11:51:33;;;;;;;49.20;8.20;;;23.40;99.90;;;;;;5091590;28;20574;-86
2021/08/07 11:54:00;;;;;;;58.53;16.63;;;23.10;99.90;;;;;;5094301;28;20621;-86
2021/08/07 11:56:27;;;;;;;49.47;7.97;;;22.80;99.90;;;;;;5094327;28;20895;-85
2021/08/07 11:58:56;;;;;;;52.37;16.17;;;22.60;99.90;;;;;;5089670;28;20452;-85
2021/08/07 12:01:30;;;;;;;77.07;54.37;;;22.30;99.90;;;;;;5091488;28;20996;-85
2021/08/07 12:03:58;;;;;;;51.53;11.40;;;22.20;99.90;;;;;;5093575;28;20442;-85
2021/08/07 12:06:30;;;;;;;45.90;8.60;;;22.00;99.90;;;;;;5092208;28;20446;-85
2021/08/07 12:08:57;;;;;;;39.60;6.10;;;21.90;99.90;;;;;;5094961;28;20466;-84
2021/08/07 12:11:24;;;;;;;37.10;3.33;;;21.80;99.90;;;;;;5081956;28;20490;-84
2021/08/07 12:13:53;;;;;;;37.20;3.10;;;21.60;99.90;;;;;;5084936;28;20434;-85
2021/08/07 12:16:23;;;;;;;41.90;3.50;;;21.60;99.90;;;;;;5090361;28;20458;-85
2021/08/07 12:18:51;;;;;;;46.77;7.77;;;21.50;99.90;;;;;;5095516;28;20961;-85
2021/08/07 12:21:29;;;;;;;43.30;7.83;;;21.60;99.90;;;;;;5095016;28;20838;-84
2021/08/07 12:23:59;;;;;;;45.90;7.10;;;21.60;99.90;;;;;;5092661;28;20448;-85
2021/08/07 12:26:28;;;;;;;41.90;3.90;;;21.50;99.90;;;;;;5094240;28;20450;-85
2021/08/07 12:29:01;;;;;;;38.03;4.80;;;21.60;99.90;;;;;;5091816;28;20450;-85
2021/08/07 12:31:43;;;;;;;31.53;1.87;;;21.80;99.90;;;;;;5091750;28;20492;-85
2021/08/07 12:34:17;;;;;;;37.70;3.30;;;21.70;99.90;;;;;;5094144;28;20438;-84
2021/08/07 12:36:58;;;;;;;48.30;8.80;;;21.70;99.90;;;;;;5093577;28;20449;-85
2021/08/07 12:39:26;;;;;;;53.47;16.40;;;21.70;99.90;;;;;;5086299;28;20499;-85
2021/08/07 12:41:54;;;;;;;57.80;21.53;;;21.90;99.90;;;;;;5094731;28;20458;-87
2021/08/07 12:44:22;;;;;;;67.30;36.80;;;22.20;99.90;;;;;;5096449;28;20450;-86
2021/08/07 12:46:53;;;;;;;77.80;59.93;;;22.80;99.90;;;;;;5094684;28;20492;-87
2021/08/07 12:49:37;;;;;;;73.70;65.90;;;23.30;99.90;;;;;;5088127;28;20455;-86
2021/08/07 12:52:07;;;;;;;48.27;6.33;;;23.70;99.90;;;;;;5074336;28;20516;-86